createdAt,value
2022-08-27T00:00:32.661Z,1013.45
2022-08-27T00:01:32.846Z,1013.44
2022-08-27T00:02:33.012Z,1013.42
2022-08-27T00:03:33.164Z,1013.40
2022-08-27T00:04:33.372Z,1013.41
2022-08-27T00:05:33.514Z,1013.40
2022-08-27T00:06:33.685Z,1013.40
2022-08-27T00:07:33.844Z,1013.39
2022-08-27T00:08:34.004Z,1013.39
2022-08-27T00:09:34.175Z,1013.42
2022-08-27T00:10:34.354Z,1013.40
2022-08-27T00:11:34.515Z,1013.40
2022-08-27T00:12:34.675Z,1013.38
2022-08-27T00:13:34.836Z,1013.40
2022-08-27T00:14:35.015Z,1013.39
2022-08-27T00:15:35.181Z,1013.39
2022-08-27T00:16:35.436Z,1013.42
2022-08-27T00:17:35.530Z,1013.40
2022-08-27T00:18:35.696Z,1013.41
2022-08-27T00:19:35.871Z,1013.42
2022-08-27T00:20:36.043Z,1013.42
2022-08-27T00:21:36.196Z,1013.44
2022-08-27T00:22:36.386Z,1013.42
2022-08-27T00:23:36.546Z,1013.40
2022-08-27T00:24:38.426Z,1013.45
2022-08-27T00:25:37.876Z,1013.46
2022-08-27T00:26:41.352Z,1013.47
2022-08-27T00:27:38.245Z,1013.47
2022-08-27T00:28:37.427Z,1013.47
2022-08-27T00:29:37.609Z,1013.42
2022-08-27T00:30:37.766Z,1013.47
2022-08-27T00:31:37.988Z,1013.47
2022-08-27T00:32:38.137Z,1013.48
2022-08-27T00:33:38.294Z,1013.51
2022-08-27T00:34:38.498Z,1013.49
2022-08-27T00:35:38.661Z,1013.51
2022-08-27T00:36:38.818Z,1013.52
2022-08-27T00:37:38.987Z,1013.50
2022-08-27T00:38:39.147Z,1013.51
2022-08-27T00:39:39.319Z,1013.50
2022-08-27T00:40:39.481Z,1013.49
2022-08-27T00:41:39.665Z,1013.50
2022-08-27T00:42:39.818Z,1013.47
2022-08-27T00:43:39.978Z,1013.44
2022-08-27T00:44:40.178Z,1013.46
2022-08-27T00:45:40.369Z,1013.42
2022-08-27T00:46:40.507Z,1013.44
2022-08-27T00:47:40.661Z,1013.42
2022-08-27T00:48:40.849Z,1013.43
2022-08-27T00:49:41.028Z,1013.41
2022-08-27T00:50:41.191Z,1013.43
2022-08-27T00:51:41.348Z,1013.40
2022-08-27T00:52:41.509Z,1013.39
2022-08-27T00:53:41.661Z,1013.36
2022-08-27T00:54:41.869Z,1013.37
2022-08-27T00:55:42.039Z,1013.35
2022-08-27T00:56:42.210Z,1013.33
2022-08-27T00:57:42.368Z,1013.33
2022-08-27T00:58:42.560Z,1013.34
2022-08-27T00:59:42.736Z,1013.33
2022-08-27T01:00:42.950Z,1013.32
2022-08-27T01:01:43.079Z,1013.29
2022-08-27T01:02:43.221Z,1013.27
2022-08-27T01:03:43.381Z,1013.29
2022-08-27T01:04:43.594Z,1013.25
2022-08-27T01:05:43.748Z,1013.25
2022-08-27T01:06:43.942Z,1013.26
2022-08-27T01:07:44.100Z,1013.24
2022-08-27T01:08:44.259Z,1013.25
2022-08-27T01:09:44.430Z,1013.28
2022-08-27T01:10:44.601Z,1013.31
2022-08-27T01:11:44.761Z,1013.29
2022-08-27T01:12:44.931Z,1013.32
2022-08-27T01:13:59.841Z,1013.30
2022-08-27T01:14:46.271Z,1013.30
2022-08-27T01:15:45.440Z,1013.31
2022-08-27T01:16:45.717Z,1013.34
2022-08-27T01:17:45.802Z,1013.33
2022-08-27T01:18:45.993Z,1013.34
2022-08-27T01:19:46.151Z,1013.38
2022-08-27T01:20:46.321Z,1013.33
2022-08-27T01:21:46.482Z,1013.34
2022-08-27T01:22:46.659Z,1013.33
2022-08-27T01:23:46.832Z,1013.32
2022-08-27T01:24:47.022Z,1013.34
2022-08-27T01:25:47.152Z,1013.29
2022-08-27T01:26:47.313Z,1013.36
2022-08-27T01:27:47.471Z,1013.34
2022-08-27T01:28:47.652Z,1013.33
2022-08-27T01:29:47.821Z,1013.36
2022-08-27T01:30:47.993Z,1013.34
2022-08-27T01:31:48.203Z,1013.34
2022-08-27T01:32:48.340Z,1013.33
2022-08-27T01:33:48.514Z,1013.36
2022-08-27T01:34:48.677Z,1013.35
2022-08-27T01:35:48.823Z,1013.36
2022-08-27T01:36:49.020Z,1013.40
2022-08-27T01:37:49.184Z,1013.38
2022-08-27T01:38:49.384Z,1013.40
2022-08-27T01:39:49.565Z,1013.43
2022-08-27T01:40:49.694Z,1013.40
2022-08-27T01:41:49.845Z,1013.41
2022-08-27T01:42:50.014Z,1013.43
2022-08-27T01:43:50.183Z,1013.43
2022-08-27T01:44:50.346Z,1013.45
2022-08-27T01:45:50.536Z,1013.38
2022-08-27T01:46:50.751Z,1013.42
2022-08-27T01:47:50.854Z,1013.42
2022-08-27T01:48:51.064Z,1013.42
2022-08-27T01:49:51.226Z,1013.45
2022-08-27T01:50:51.408Z,1013.41
2022-08-27T01:51:51.565Z,1013.46
2022-08-27T01:52:51.769Z,1013.44
2022-08-27T01:53:51.946Z,1013.44
2022-08-27T01:54:52.115Z,1013.46
2022-08-27T01:55:52.266Z,1013.44
2022-08-27T01:56:52.457Z,1013.39
2022-08-27T01:57:52.615Z,1013.40
2022-08-27T01:58:52.795Z,1013.36
2022-08-27T01:59:52.946Z,1013.37
2022-08-27T02:00:56.266Z,1013.38
2022-08-27T02:01:53.376Z,1013.40
2022-08-27T02:02:53.507Z,1013.38
2022-08-27T02:03:53.677Z,1013.40
2022-08-27T02:04:53.837Z,1013.42
2022-08-27T02:05:54.005Z,1013.44
2022-08-27T02:06:54.167Z,1013.42
2022-08-27T02:07:54.361Z,1013.42
2022-08-27T02:08:54.568Z,1013.41
2022-08-27T02:09:54.737Z,1013.44
2022-08-27T02:10:54.926Z,1013.41
2022-08-27T02:11:55.090Z,1013.42
2022-08-27T02:12:55.278Z,1013.42
2022-08-27T02:13:55.447Z,1013.46
2022-08-27T02:14:55.608Z,1013.42
2022-08-27T02:15:55.792Z,1013.47
2022-08-27T02:16:55.947Z,1013.43
2022-08-27T02:17:56.128Z,1013.44
2022-08-27T02:18:56.308Z,1013.44
2022-08-27T02:19:56.468Z,1013.48
2022-08-27T02:20:56.639Z,1013.46
2022-08-27T02:21:56.809Z,1013.44
2022-08-27T02:22:56.968Z,1013.42
2022-08-27T02:23:57.148Z,1013.41
2022-08-27T02:24:57.298Z,1013.41
2022-08-27T02:25:57.458Z,1013.41
2022-08-27T02:26:57.635Z,1013.39
2022-08-27T02:27:57.788Z,1013.42
2022-08-27T02:28:57.979Z,1013.45
2022-08-27T02:29:58.138Z,1013.44
2022-08-27T02:30:58.362Z,1013.44
2022-08-27T02:31:58.491Z,1013.45
2022-08-27T02:32:58.651Z,1013.47
2022-08-27T02:33:58.819Z,1013.51
2022-08-27T02:34:58.979Z,1013.53
2022-08-27T02:35:59.151Z,1013.57
2022-08-27T02:36:59.319Z,1013.57
2022-08-27T02:37:59.470Z,1013.57
2022-08-27T02:38:59.690Z,1013.61
2022-08-27T02:39:59.878Z,1013.58
2022-08-27T02:41:00.019Z,1013.59
2022-08-27T02:42:00.190Z,1013.56
2022-08-27T02:43:00.349Z,1013.55
2022-08-27T02:44:01.278Z,1013.56
2022-08-27T02:45:00.680Z,1013.56
2022-08-27T02:46:00.830Z,1013.56
2022-08-27T02:47:01.030Z,1013.56
2022-08-27T02:48:01.190Z,1013.56
2022-08-27T02:49:01.360Z,1013.54
2022-08-27T02:50:01.532Z,1013.58
2022-08-27T02:51:01.682Z,1013.57
2022-08-27T02:52:01.831Z,1013.57
2022-08-27T02:53:02.032Z,1013.55
2022-08-27T02:54:02.210Z,1013.58
2022-08-27T02:55:02.381Z,1013.56
2022-08-27T02:56:02.541Z,1013.55
2022-08-27T02:57:02.711Z,1013.56
2022-08-27T02:58:02.964Z,1013.60
2022-08-27T02:59:03.074Z,1013.59
2022-08-27T03:00:03.232Z,1013.60
2022-08-27T03:01:03.423Z,1013.60
2022-08-27T03:02:03.663Z,1013.58
2022-08-27T03:03:03.833Z,1013.59
2022-08-27T03:04:03.943Z,1013.66
2022-08-27T03:05:04.120Z,1013.67
2022-08-27T03:06:04.283Z,1013.62
2022-08-27T03:07:04.453Z,1013.59
2022-08-27T03:08:04.625Z,1013.64
2022-08-27T03:09:04.796Z,1013.69
2022-08-27T03:10:04.953Z,1013.61
2022-08-27T03:11:05.153Z,1013.66
2022-08-27T03:12:05.316Z,1013.67
2022-08-27T03:13:05.485Z,1013.65
2022-08-27T03:14:05.653Z,1013.67
2022-08-27T03:15:05.823Z,1013.69
2022-08-27T03:16:06.033Z,1013.72
2022-08-27T03:17:06.172Z,1013.74
2022-08-27T03:18:06.335Z,1013.68
2022-08-27T03:19:06.527Z,1013.67
2022-08-27T03:20:06.693Z,1013.71
2022-08-27T03:21:06.876Z,1013.71
2022-08-27T03:22:07.024Z,1013.72
2022-08-27T03:23:07.194Z,1013.68
2022-08-27T03:24:09.408Z,1013.67
2022-08-27T03:25:08.544Z,1013.64
2022-08-27T03:26:07.706Z,1013.64
2022-08-27T03:27:07.874Z,1013.63
2022-08-27T03:28:20.631Z,1013.62
2022-08-27T03:29:09.259Z,1013.63
2022-08-27T03:30:08.404Z,1013.63
2022-08-27T03:31:08.639Z,1013.60
2022-08-27T03:32:08.734Z,1013.58
2022-08-27T03:33:08.915Z,1013.55
2022-08-27T03:34:09.100Z,1013.55
2022-08-27T03:35:09.269Z,1013.59
2022-08-27T03:36:09.436Z,1013.51
2022-08-27T03:37:09.605Z,1013.51
2022-08-27T03:38:09.909Z,1013.51
2022-08-27T03:39:09.960Z,1013.50
2022-08-27T03:40:10.196Z,1013.52
2022-08-27T03:41:10.317Z,1013.49
2022-08-27T03:42:10.485Z,1013.49
2022-08-27T03:43:10.646Z,1013.47
2022-08-27T03:44:10.834Z,1013.49
2022-08-27T03:45:11.987Z,1013.51
2022-08-27T03:46:11.205Z,1013.49
2022-08-27T03:47:11.351Z,1013.51
2022-08-27T03:48:11.596Z,1013.49
2022-08-27T03:49:13.382Z,1013.49
2022-08-27T03:50:11.847Z,1013.50
2022-08-27T03:51:12.017Z,1013.50
2022-08-27T03:52:12.187Z,1013.45
2022-08-27T03:53:12.377Z,1013.43
2022-08-27T03:54:12.575Z,1013.46
2022-08-27T03:55:12.728Z,1013.45
2022-08-27T03:56:12.887Z,1013.40
2022-08-27T03:57:13.078Z,1013.38
2022-08-27T03:58:13.228Z,1013.37
2022-08-27T03:59:13.437Z,1013.35
2022-08-27T04:00:13.587Z,1013.33
2022-08-27T04:01:13.814Z,1013.32
2022-08-27T04:02:14.911Z,1013.34
2022-08-27T04:03:14.182Z,1013.32
2022-08-27T04:04:14.321Z,1013.32
2022-08-27T04:05:14.477Z,1013.27
2022-08-27T04:06:14.630Z,1013.23
2022-08-27T04:07:14.791Z,1013.25
2022-08-27T04:08:14.948Z,1013.22
2022-08-27T04:09:15.183Z,1013.21
2022-08-27T04:10:15.300Z,1013.19
2022-08-27T04:11:15.501Z,1013.25
2022-08-27T04:12:15.639Z,1013.21
2022-08-27T04:13:15.809Z,1013.18
2022-08-27T04:14:19.909Z,1013.22
2022-08-27T04:15:17.200Z,1013.22
2022-08-27T04:16:16.403Z,1013.19
2022-08-27T04:17:16.522Z,1013.22
2022-08-27T04:18:16.719Z,1013.23
2022-08-27T04:19:16.880Z,1013.21
2022-08-27T04:20:34.596Z,1013.23
2022-08-27T04:21:18.250Z,1013.24
2022-08-27T04:22:17.411Z,1013.27
2022-08-27T04:23:17.612Z,1013.27
2022-08-27T04:24:17.780Z,1013.29
2022-08-27T04:25:17.962Z,1013.29
2022-08-27T04:26:18.131Z,1013.32
2022-08-27T04:27:18.319Z,1013.34
2022-08-27T04:28:18.517Z,1013.34
2022-08-27T04:29:18.670Z,1013.38
2022-08-27T04:30:18.859Z,1013.39
2022-08-27T04:31:19.063Z,1013.43
2022-08-27T04:32:19.202Z,1013.42
2022-08-27T04:33:19.400Z,1013.49
2022-08-27T04:34:19.561Z,1013.51
2022-08-27T04:35:19.751Z,1013.50
2022-08-27T04:36:19.932Z,1013.52
2022-08-27T04:37:23.255Z,1013.53
2022-08-27T04:38:20.283Z,1013.57
2022-08-27T04:39:20.441Z,1013.52
2022-08-27T04:40:20.674Z,1013.60
2022-08-27T04:41:20.822Z,1013.58
2022-08-27T04:42:20.972Z,1013.56
2022-08-27T04:43:21.175Z,1013.59
2022-08-27T04:44:21.342Z,1013.64
2022-08-27T04:45:21.531Z,1013.60
2022-08-27T04:46:21.711Z,1013.62
2022-08-27T04:47:21.852Z,1013.66
2022-08-27T04:48:22.033Z,1013.65
2022-08-27T04:49:22.203Z,1013.67
2022-08-27T04:50:22.392Z,1013.64
2022-08-27T04:51:22.565Z,1013.62
2022-08-27T04:52:22.733Z,1013.59
2022-08-27T04:53:22.923Z,1013.57
2022-08-27T04:54:31.185Z,1013.60
2022-08-27T04:55:24.258Z,1013.65
2022-08-27T04:56:23.424Z,1013.59
2022-08-27T04:57:23.624Z,1013.60
2022-08-27T04:58:23.795Z,1013.60
2022-08-27T04:59:23.934Z,1013.57
2022-08-27T05:00:24.125Z,1013.57
2022-08-27T05:01:24.361Z,1013.55
2022-08-27T05:02:24.467Z,1013.51
2022-08-27T05:03:24.657Z,1013.58
2022-08-27T05:04:24.824Z,1013.57
2022-08-27T05:05:25.032Z,1013.51
2022-08-27T05:06:25.154Z,1013.53
2022-08-27T05:07:25.345Z,1013.54
2022-08-27T05:08:25.544Z,1013.54
2022-08-27T05:09:26.813Z,1013.51
2022-08-27T05:10:25.882Z,1013.55
2022-08-27T05:11:26.045Z,1013.54
2022-08-27T05:12:26.225Z,1013.51
2022-08-27T05:13:26.406Z,1013.50
2022-08-27T05:14:26.575Z,1013.49
2022-08-27T05:15:26.736Z,1013.54
2022-08-27T05:16:26.908Z,1013.49
2022-08-27T05:17:27.085Z,1013.53
2022-08-27T05:18:27.266Z,1013.52
2022-08-27T05:19:27.423Z,1013.52
2022-08-27T05:20:27.593Z,1013.53
2022-08-27T05:21:27.772Z,1013.49
2022-08-27T05:22:27.955Z,1013.49
2022-08-27T05:23:28.165Z,1013.51
2022-08-27T05:24:28.302Z,1013.54
2022-08-27T05:25:28.466Z,1013.53
2022-08-27T05:26:28.640Z,1013.55
2022-08-27T05:27:28.808Z,1013.52
2022-08-27T05:28:29.051Z,1013.54
2022-08-27T05:29:29.167Z,1013.55
2022-08-27T05:30:29.357Z,1013.56
2022-08-27T05:31:29.633Z,1013.53
2022-08-27T05:32:29.708Z,1013.56
2022-08-27T05:33:29.897Z,1013.58
2022-08-27T05:34:30.077Z,1013.59
2022-08-27T05:35:30.237Z,1013.59
2022-08-27T05:36:30.407Z,1013.58
2022-08-27T05:37:30.588Z,1013.61
2022-08-27T05:38:30.782Z,1013.60
2022-08-27T05:39:30.972Z,1013.59
2022-08-27T05:40:31.150Z,1013.61
2022-08-27T05:41:33.893Z,1013.59
2022-08-27T05:42:31.449Z,1013.57
2022-08-27T05:43:31.619Z,1013.55
2022-08-27T05:44:47.066Z,1013.56
2022-08-27T05:45:32.939Z,1013.54
2022-08-27T05:46:32.196Z,1013.56
2022-08-27T05:47:32.269Z,1013.54
2022-08-27T05:48:33.457Z,1013.53
2022-08-27T05:49:32.618Z,1013.47
2022-08-27T05:50:32.809Z,1013.43
2022-08-27T05:51:32.960Z,1013.48
2022-08-27T05:52:33.144Z,1013.45
2022-08-27T05:53:33.339Z,1013.49
2022-08-27T05:54:33.499Z,1013.46
2022-08-27T05:55:33.649Z,1013.48
2022-08-27T05:56:33.840Z,1013.49
2022-08-27T05:57:34.030Z,1013.46
2022-08-27T05:58:34.228Z,1013.46
2022-08-27T05:59:34.575Z,1013.47
2022-08-27T06:00:34.540Z,1013.49
2022-08-27T06:01:34.732Z,1013.53
2022-08-27T06:02:34.939Z,1013.52
2022-08-27T06:03:35.090Z,1013.53
2022-08-27T06:04:35.240Z,1013.49
2022-08-27T06:05:35.508Z,1013.53
2022-08-27T06:06:35.582Z,1013.57
2022-08-27T06:07:35.763Z,1013.54
2022-08-27T06:08:35.962Z,1013.53
2022-08-27T06:09:36.111Z,1013.54
2022-08-27T06:10:36.292Z,1013.59
2022-08-27T06:11:36.472Z,1013.59
2022-08-27T06:12:36.656Z,1013.59
2022-08-27T06:13:36.832Z,1013.60
2022-08-27T06:14:37.032Z,1013.61
2022-08-27T06:15:37.256Z,1013.58
2022-08-27T06:16:37.381Z,1013.59
2022-08-27T06:17:37.561Z,1013.60
2022-08-27T06:18:37.742Z,1013.60
2022-08-27T06:19:37.935Z,1013.60
2022-08-27T06:20:38.114Z,1013.59
2022-08-27T06:21:38.303Z,1013.61
2022-08-27T06:22:38.483Z,1013.60
2022-08-27T06:23:38.684Z,1013.57
2022-08-27T06:24:38.824Z,1013.60
2022-08-27T06:25:39.004Z,1013.62
2022-08-27T06:26:39.193Z,1013.60
2022-08-27T06:27:39.358Z,1013.61
2022-08-27T06:28:39.535Z,1013.63
2022-08-27T06:29:39.693Z,1013.63
2022-08-27T06:30:39.893Z,1013.63
2022-08-27T06:31:40.528Z,1013.67
2022-08-27T06:32:40.214Z,1013.66
2022-08-27T06:33:40.413Z,1013.69
2022-08-27T06:34:40.561Z,1013.67
2022-08-27T06:35:40.735Z,1013.70
2022-08-27T06:36:40.921Z,1013.72
2022-08-27T06:37:41.114Z,1013.73
2022-08-27T06:38:41.286Z,1013.76
2022-08-27T06:39:41.424Z,1013.74
2022-08-27T06:40:41.615Z,1013.74
2022-08-27T06:41:41.794Z,1013.79
2022-08-27T06:42:41.975Z,1013.81
2022-08-27T06:43:42.166Z,1013.79
2022-08-27T06:44:42.346Z,1013.76
2022-08-27T06:45:42.525Z,1013.77
2022-08-27T06:46:42.794Z,1013.76
2022-08-27T06:47:42.894Z,1013.73
2022-08-27T06:48:43.086Z,1013.74
2022-08-27T06:49:46.352Z,1013.72
2022-08-27T06:50:43.426Z,1013.74
2022-08-27T06:51:43.618Z,1013.75
2022-08-27T06:52:43.796Z,1013.76
2022-08-27T06:53:43.986Z,1013.76
2022-08-27T06:54:44.166Z,1013.76
2022-08-27T06:55:44.354Z,1013.71
2022-08-27T06:56:44.531Z,1013.79
2022-08-27T06:57:44.708Z,1013.74
2022-08-27T06:58:44.924Z,1013.74
2022-08-27T06:59:45.057Z,1013.76
2022-08-27T07:00:48.914Z,1013.76
2022-08-27T07:01:45.508Z,1013.83
2022-08-27T07:02:45.650Z,1013.82
2022-08-27T07:03:45.788Z,1013.80
2022-08-27T07:04:45.939Z,1013.81
2022-08-27T07:05:46.118Z,1013.86
2022-08-27T07:06:46.301Z,1013.88
2022-08-27T07:07:48.771Z,1013.85
2022-08-27T07:08:53.031Z,1013.87
2022-08-27T07:09:47.850Z,1013.88
2022-08-27T07:10:47.039Z,1013.90
2022-08-27T07:11:47.219Z,1013.92
2022-08-27T07:12:47.408Z,1013.95
2022-08-27T07:13:47.579Z,1013.93
2022-08-27T07:14:47.720Z,1013.99
2022-08-27T07:15:47.900Z,1013.99
2022-08-27T07:16:48.315Z,1013.97
2022-08-27T07:17:48.259Z,1013.98
2022-08-27T07:18:48.420Z,1013.98
2022-08-27T07:19:48.569Z,1013.98
2022-08-27T07:20:48.750Z,1014.00
2022-08-27T07:21:48.913Z,1013.95
2022-08-27T07:22:49.100Z,1013.95
2022-08-27T07:23:49.251Z,1013.97
2022-08-27T07:24:49.447Z,1013.94
2022-08-27T07:25:49.610Z,1013.92
2022-08-27T07:26:49.810Z,1013.91
2022-08-27T07:27:49.992Z,1013.93
2022-08-27T07:28:50.390Z,1013.92
2022-08-27T07:29:50.301Z,1013.88
2022-08-27T07:30:50.548Z,1013.88
2022-08-27T07:31:50.642Z,1013.92
2022-08-27T07:32:50.851Z,1013.91
2022-08-27T07:33:52.630Z,1013.93
2022-08-27T07:34:51.177Z,1013.94
2022-08-27T07:35:51.342Z,1013.96
2022-08-27T07:36:51.532Z,1013.92
2022-08-27T07:37:51.724Z,1013.97
2022-08-27T07:38:57.058Z,1013.95
2022-08-27T07:39:53.089Z,1013.98
2022-08-27T07:40:52.252Z,1013.97
2022-08-27T07:41:52.384Z,1013.99
2022-08-27T07:42:52.583Z,1013.96
2022-08-27T07:43:56.168Z,1014.01
2022-08-27T07:44:52.920Z,1013.96
2022-08-27T07:45:53.125Z,1014.01
2022-08-27T07:46:53.280Z,1013.99
2022-08-27T07:47:53.473Z,1014.00
2022-08-27T07:48:53.652Z,1013.97
2022-08-27T07:49:53.823Z,1013.98
2022-08-27T07:50:54.013Z,1014.01
2022-08-27T07:51:54.154Z,1014.01
2022-08-27T07:52:54.354Z,1013.99
2022-08-27T07:53:54.524Z,1014.01
2022-08-27T07:54:54.715Z,1014.02
2022-08-27T07:55:54.854Z,1013.98
2022-08-27T07:56:56.014Z,1014.01
2022-08-27T07:57:55.224Z,1014.04
2022-08-27T07:58:55.425Z,1014.00
2022-08-27T07:59:55.596Z,1013.99
2022-08-27T08:00:55.795Z,1014.04
2022-08-27T08:01:56.200Z,1014.03
2022-08-27T08:02:56.188Z,1014.01
2022-08-27T08:03:56.285Z,1013.98
2022-08-27T08:04:56.465Z,1014.01
2022-08-27T08:05:56.665Z,1014.03
2022-08-27T08:06:56.852Z,1013.98
2022-08-27T08:07:57.036Z,1013.99
2022-08-27T08:08:57.183Z,1013.99
2022-08-27T08:09:57.355Z,1013.99
2022-08-27T08:10:57.536Z,1013.99
2022-08-27T08:11:57.716Z,1014.00
2022-08-27T08:12:57.926Z,1014.03
2022-08-27T08:13:58.056Z,1013.99
2022-08-27T08:14:58.247Z,1013.97
2022-08-27T08:15:58.396Z,1014.00
2022-08-27T08:16:58.731Z,1013.95
2022-08-27T08:17:58.759Z,1013.96
2022-08-27T08:18:58.944Z,1014.01
2022-08-27T08:20:18.455Z,1014.02
2022-08-27T08:21:00.417Z,1014.03
2022-08-27T08:22:04.832Z,1014.05
2022-08-27T08:23:00.647Z,1014.06
2022-08-27T08:23:59.840Z,1014.06
2022-08-27T08:25:00.017Z,1014.04
2022-08-27T08:26:00.199Z,1014.06
2022-08-27T08:27:03.864Z,1014.11
2022-08-27T08:28:01.549Z,1014.02
2022-08-27T08:29:00.738Z,1014.08
2022-08-27T08:30:00.950Z,1014.04
2022-08-27T08:31:01.129Z,1014.05
2022-08-27T08:32:01.250Z,1014.03
2022-08-27T08:33:01.430Z,1014.04
2022-08-27T08:34:01.619Z,1014.03
2022-08-27T08:35:01.801Z,1014.05
2022-08-27T08:36:01.991Z,1014.06
2022-08-27T08:37:02.188Z,1014.04
2022-08-27T08:38:02.330Z,1014.04
2022-08-27T08:39:02.510Z,1014.05
2022-08-27T08:40:02.739Z,1014.03
2022-08-27T08:41:02.860Z,1014.05
2022-08-27T08:42:03.062Z,1013.99
2022-08-27T08:43:03.209Z,1014.03
2022-08-27T08:44:05.654Z,1014.06
2022-08-27T08:45:03.599Z,1014.04
2022-08-27T08:46:03.863Z,1014.01
2022-08-27T08:47:03.952Z,1014.04
2022-08-27T08:48:04.203Z,1014.03
2022-08-27T08:49:04.302Z,1014.01
2022-08-27T08:50:04.471Z,1014.00
2022-08-27T08:51:04.650Z,1014.01
2022-08-27T08:52:04.852Z,1013.97
2022-08-27T08:53:05.011Z,1013.96
2022-08-27T08:54:05.198Z,1013.98
2022-08-27T08:55:05.372Z,1013.99
2022-08-27T08:56:05.562Z,1013.99
2022-08-27T08:57:05.756Z,1013.97
2022-08-27T08:58:05.902Z,1013.96
2022-08-27T08:59:06.080Z,1013.95
2022-08-27T09:00:06.274Z,1013.94
2022-08-27T09:01:06.483Z,1013.94
2022-08-27T09:02:09.168Z,1013.92
2022-08-27T09:03:07.754Z,1013.93
2022-08-27T09:04:07.025Z,1013.93
2022-08-27T09:05:07.093Z,1013.94
2022-08-27T09:06:07.287Z,1013.89
2022-08-27T09:07:07.474Z,1013.92
2022-08-27T09:08:32.024Z,1013.87
2022-08-27T09:09:08.784Z,1013.86
2022-08-27T09:10:08.002Z,1013.83
2022-08-27T09:11:08.173Z,1013.82
2022-08-27T09:12:08.322Z,1013.79
2022-08-27T09:13:08.547Z,1013.83
2022-08-27T09:14:13.206Z,1013.85
2022-08-27T09:15:09.349Z,1013.81
2022-08-27T09:16:09.047Z,1013.80
2022-08-27T09:17:11.250Z,1013.80
2022-08-27T09:18:13.989Z,1013.83
2022-08-27T09:19:12.988Z,1013.84
2022-08-27T09:20:13.176Z,1013.82
2022-08-27T09:21:10.107Z,1013.90
2022-08-27T09:22:10.078Z,1013.85
2022-08-27T09:23:10.255Z,1013.86
2022-08-27T09:24:10.436Z,1013.88
2022-08-27T09:25:10.616Z,1013.89
2022-08-27T09:26:10.806Z,1013.89
2022-08-27T09:27:10.957Z,1013.88
2022-08-27T09:28:11.269Z,1013.85
2022-08-27T09:29:11.316Z,1013.82
2022-08-27T09:30:11.459Z,1013.81
2022-08-27T09:31:11.734Z,1013.81
2022-08-27T09:32:11.827Z,1013.84
2022-08-27T09:33:11.997Z,1013.82
2022-08-27T09:34:12.198Z,1013.78
2022-08-27T09:35:12.359Z,1013.77
2022-08-27T09:36:12.569Z,1013.77
2022-08-27T09:37:12.695Z,1013.79
2022-08-27T09:38:12.877Z,1013.83
2022-08-27T09:39:13.028Z,1013.77
2022-08-27T09:40:13.709Z,1013.77
2022-08-27T09:41:14.379Z,1013.75
2022-08-27T09:42:13.550Z,1013.73
2022-08-27T09:43:13.719Z,1013.74
2022-08-27T09:44:13.903Z,1013.75
2022-08-27T09:45:14.057Z,1013.69
2022-08-27T09:46:14.332Z,1013.72
2022-08-27T09:47:14.413Z,1013.71
2022-08-27T09:48:14.580Z,1013.70
2022-08-27T09:49:14.740Z,1013.69
2022-08-27T09:50:14.982Z,1013.71
2022-08-27T09:51:15.100Z,1013.73
2022-08-27T09:52:16.273Z,1013.70
2022-08-27T09:53:15.441Z,1013.74
2022-08-27T09:54:15.629Z,1013.74
2022-08-27T09:55:15.800Z,1013.75
2022-08-27T09:56:16.012Z,1013.77
2022-08-27T09:57:16.120Z,1013.78
2022-08-27T09:58:16.301Z,1013.80
2022-08-27T09:59:16.481Z,1013.86
2022-08-27T10:00:16.671Z,1013.87
2022-08-27T10:01:16.925Z,1013.87
2022-08-27T10:02:16.992Z,1013.88
2022-08-27T10:03:17.162Z,1013.92
2022-08-27T10:04:17.385Z,1013.93
2022-08-27T10:05:17.492Z,1013.93
2022-08-27T10:06:17.682Z,1013.94
2022-08-27T10:07:17.839Z,1013.89
2022-08-27T10:08:18.013Z,1013.94
2022-08-27T10:09:18.172Z,1013.89
2022-08-27T10:10:18.343Z,1013.92
2022-08-27T10:11:18.533Z,1013.89
2022-08-27T10:12:18.683Z,1013.88
2022-08-27T10:13:18.863Z,1013.88
2022-08-27T10:14:19.043Z,1013.90
2022-08-27T10:15:19.227Z,1013.90
2022-08-27T10:16:19.430Z,1013.91
2022-08-27T10:17:19.556Z,1013.87
2022-08-27T10:18:19.769Z,1013.90
2022-08-27T10:19:19.916Z,1013.89
2022-08-27T10:20:20.344Z,1013.93
2022-08-27T10:21:21.247Z,1013.93
2022-08-27T10:22:20.437Z,1013.92
2022-08-27T10:23:20.616Z,1013.92
2022-08-27T10:24:20.798Z,1013.96
2022-08-27T10:25:20.974Z,1013.97
2022-08-27T10:26:21.193Z,1013.98
2022-08-27T10:27:21.316Z,1014.03
2022-08-27T10:28:21.513Z,1014.02
2022-08-27T10:29:21.695Z,1014.06
2022-08-27T10:30:21.865Z,1014.05
2022-08-27T10:31:22.062Z,1014.06
2022-08-27T10:32:22.217Z,1014.07
2022-08-27T10:33:23.731Z,1014.05
2022-08-27T10:34:22.564Z,1014.11
2022-08-27T10:35:22.736Z,1014.08
2022-08-27T10:36:22.947Z,1014.04
2022-08-27T10:37:23.117Z,1014.03
2022-08-27T10:38:23.305Z,1014.01
2022-08-27T10:39:23.467Z,1014.01
2022-08-27T10:40:23.705Z,1014.05
2022-08-27T10:41:23.798Z,1014.06
2022-08-27T10:42:23.969Z,1014.07
2022-08-27T10:43:24.158Z,1014.09
2022-08-27T10:44:24.336Z,1014.11
2022-08-27T10:45:30.675Z,1014.13
2022-08-27T10:46:27.150Z,1014.11
2022-08-27T10:47:24.890Z,1014.12
2022-08-27T10:48:25.073Z,1014.03
2022-08-27T10:49:25.249Z,1014.08
2022-08-27T10:50:25.439Z,1014.04
2022-08-27T10:51:25.594Z,1014.04
2022-08-27T10:52:25.769Z,1014.06
2022-08-27T10:53:25.941Z,1014.05
2022-08-27T10:54:26.110Z,1014.08
2022-08-27T10:55:26.301Z,1014.07
2022-08-27T10:56:26.480Z,1014.08
2022-08-27T10:57:45.364Z,1014.05
2022-08-27T10:58:27.822Z,1014.09
2022-08-27T10:59:26.995Z,1014.10
2022-08-27T11:00:27.182Z,1014.10
2022-08-27T11:01:27.341Z,1014.05
2022-08-27T11:02:27.560Z,1014.02
2022-08-27T11:03:30.112Z,1014.03
2022-08-27T11:04:28.852Z,1014.03
2022-08-27T11:05:28.023Z,1014.06
2022-08-27T11:06:28.200Z,1014.07
2022-08-27T11:07:28.372Z,1014.08
2022-08-27T11:08:28.553Z,1014.07
2022-08-27T11:09:28.729Z,1014.02
2022-08-27T11:10:28.924Z,1014.09
2022-08-27T11:12:10.391Z,1014.13
2022-08-27T11:12:30.234Z,1014.11
2022-08-27T11:13:29.414Z,1014.07
2022-08-27T11:14:29.585Z,1014.13
2022-08-27T11:15:29.764Z,1014.14
2022-08-27T11:16:29.949Z,1014.16
2022-08-27T11:17:32.109Z,1014.13
2022-08-27T11:18:30.265Z,1014.15
2022-08-27T11:19:30.416Z,1014.09
2022-08-27T11:20:30.602Z,1014.10
2022-08-27T11:21:30.755Z,1014.12
2022-08-27T11:22:30.929Z,1014.12
2022-08-27T11:23:31.093Z,1014.11
2022-08-27T11:24:34.895Z,1014.12
2022-08-27T11:25:31.456Z,1014.15
2022-08-27T11:26:31.614Z,1014.12
2022-08-27T11:27:31.778Z,1014.15
2022-08-27T11:28:31.947Z,1014.09
2022-08-27T11:29:32.116Z,1014.13
2022-08-27T11:30:32.318Z,1014.05
2022-08-27T11:31:32.509Z,1014.08
2022-08-27T11:32:32.629Z,1014.09
2022-08-27T11:33:32.797Z,1014.06
2022-08-27T11:34:32.986Z,1014.07
2022-08-27T11:35:34.654Z,1014.05
2022-08-27T11:36:33.329Z,1014.03
2022-08-27T11:37:33.498Z,1014.07
2022-08-27T11:38:33.659Z,1014.07
2022-08-27T11:39:33.819Z,1014.04
2022-08-27T11:40:34.057Z,1014.02
2022-08-27T11:41:45.310Z,1013.99
2022-08-27T11:42:35.340Z,1014.01
2022-08-27T11:43:34.509Z,1014.04
2022-08-27T11:44:34.682Z,1014.00
2022-08-27T11:45:34.883Z,1014.03
2022-08-27T11:46:35.146Z,1014.04
2022-08-27T11:47:35.543Z,1014.01
2022-08-27T11:48:35.410Z,1013.99
2022-08-27T11:49:35.580Z,1014.06
2022-08-27T11:50:35.731Z,1014.03
2022-08-27T11:51:35.902Z,1014.05
2022-08-27T11:52:36.070Z,1014.05
2022-08-27T11:53:52.564Z,1014.04
2022-08-27T11:54:37.433Z,1014.03
2022-08-27T11:55:36.567Z,1014.01
2022-08-27T11:56:36.758Z,1014.01
2022-08-27T11:57:36.903Z,1014.03
2022-08-27T11:58:52.693Z,1013.98
2022-08-27T11:59:38.248Z,1014.00
2022-08-27T12:00:37.436Z,1013.93
2022-08-27T12:01:37.593Z,1014.00
2022-08-27T12:02:37.760Z,1013.98
2022-08-27T12:03:37.986Z,1013.94
2022-08-27T12:04:38.170Z,1013.90
2022-08-27T12:05:38.284Z,1013.92
2022-08-27T12:06:38.444Z,1013.91
2022-08-27T12:07:38.605Z,1013.98